Capitol Logistics 2115

Operating for AJT



KAUS
Austin-Bergstrom International Airport
Austin, Texas
KCVG
Cincinnati/Northern Kentucky International Airport
Covington, Kentucky

Activity Log

Date Flight Route Aircraft Duration
05/27/2021 CPX2115 ILEXY2 ZENZI LFK ELD KM24I PXV SARGO3 B763 2h 29m

Route Details

Aircraft Information
Primary: Boeing 767-300BDSF
Backup: Airbus A300-600F
Route Data
Distance: 833nm
Duration: 1h 52m
Recm'd Route: ILEXY2 ZENZI LFK ELD KM24I PXV SARGO3
Origin Wx: KAUS 020453Z 06007KT 2SM R18L/4000VP6000FT -TSRA BR BKN038CB OVC048 26/24 A3003 RMK AO2 LTG DSNT W-NE RAB34 TSB23 SLP156 OCNL LTGICCCCG OHD TS OHD MOV E P0016 T02560239
Dest. Wx: KCVG 020452Z 34006KT 10SM CLR 18/12 A3007 RMK AO2 SLP174 T01830122 402720139
Notes: